Time;durP1;ratioP1;P1;durP2;ratioP2;P2;SDS_P1;SDS_P2;PMS_P1;PMS_P2;Temp;Humidity;BMP_temperature;BMP_pressure;BME280_temperature;BME280_humidity;BME280_pressure;Samples;Min_cycle;Max_cycle;Signal;HPM_P1;HPM_P2
2023/08/12 00:00:52;;;;;;;10.30;2.70;;;16.70;99.90;;;15.85;95.70;101644.03;4928310;28;20473;-77
2023/08/12 00:03:18;;;;;;;7.50;2.15;;;16.70;99.90;;;15.83;94.80;101639.75;4916832;28;20456;-76
2023/08/12 00:05:45;;;;;;;9.15;2.35;;;16.70;99.90;;;15.81;94.44;101650.47;4949988;28;20051;-76
2023/08/12 00:08:11;;;;;;;9.30;2.13;;;16.70;99.90;;;15.76;94.63;101649.84;4927757;28;20070;-76
2023/08/12 00:10:39;;;;;;;7.20;2.08;;;16.70;99.90;;;15.75;94.64;101653.47;4923283;28;20427;-76
2023/08/12 00:13:05;;;;;;;4.93;2.38;;;16.60;99.90;;;15.68;94.42;101647.59;4885753;29;20167;-76
2023/08/12 00:15:31;;;;;;;7.10;2.30;;;16.60;99.90;;;15.65;94.77;101645.09;4926836;23;20466;-76
2023/08/12 00:17:57;;;;;;;7.30;2.35;;;16.50;99.90;;;15.54;95.32;101644.81;4909164;29;20419;-76
2023/08/12 00:20:22;;;;;;;9.65;2.13;;;16.50;99.90;;;15.56;95.41;101642.91;4917164;29;20039;-76
2023/08/12 00:22:48;;;;;;;7.95;2.10;;;16.50;99.90;;;15.58;94.23;101649.00;4894318;29;20504;-76
2023/08/12 00:25:15;;;;;;;6.70;1.95;;;16.50;99.90;;;15.60;93.15;101660.41;4920470;28;20031;-76
2023/08/12 00:27:46;;;;;;;9.55;2.20;;;16.50;99.90;;;15.57;92.88;101660.56;4936004;28;20030;-76
2023/08/12 00:30:12;;;;;;;8.75;2.20;;;16.50;99.90;;;15.53;93.14;101651.91;4917503;28;20118;-76
2023/08/12 00:32:38;;;;;;;9.07;2.00;;;16.50;99.90;;;15.53;93.00;101643.94;4923756;28;20039;-76
2023/08/12 00:35:05;;;;;;;5.68;2.30;;;16.40;99.90;;;15.38;94.41;101635.00;4924100;28;20117;-76
2023/08/12 00:37:31;;;;;;;10.07;2.40;;;16.30;99.90;;;15.28;95.33;101625.78;4946185;28;20047;-76
2023/08/12 00:39:56;;;;;;;5.22;2.40;;;16.30;99.90;;;15.30;94.53;101634.53;4916039;28;20459;-76
2023/08/12 00:42:22;;;;;;;5.28;2.20;;;16.20;99.90;;;15.26;94.52;101635.63;4926424;29;20082;-76
2023/08/12 00:44:48;;;;;;;8.15;2.10;;;16.20;99.90;;;15.26;94.33;101640.09;4924619;28;20044;-76
2023/08/12 00:47:16;;;;;;;9.15;2.00;;;16.20;99.90;;;15.22;94.60;101636.72;4919523;28;20047;-76
2023/08/12 00:49:46;;;;;;;8.27;2.33;;;16.10;99.90;;;15.18;95.04;101633.38;4905773;28;20050;-76
2023/08/12 00:52:15;;;;;;;4.00;1.77;;;16.10;99.90;;;15.04;95.84;101635.03;4937084;28;20037;-75
2023/08/12 00:54:41;;;;;;;8.13;2.00;;;16.00;99.90;;;14.98;96.42;101633.53;4922325;28;20110;-76
2023/08/12 00:57:07;;;;;;;4.95;2.05;;;15.90;99.90;;;14.90;97.24;101633.06;4921666;28;20051;-76
2023/08/12 00:59:39;;;;;;;5.70;2.45;;;15.90;99.90;;;14.85;97.56;101625.34;4915691;29;20031;-76
2023/08/12 01:02:10;;;;;;;10.35;2.30;;;15.80;99.90;;;14.83;97.65;101624.53;4919746;28;20039;-76
2023/08/12 01:04:36;;;;;;;4.80;1.90;;;15.80;99.90;;;14.80;97.93;101619.41;4916668;28;20099;-76
2023/08/12 01:07:03;;;;;;;8.27;2.00;;;15.80;99.90;;;14.75;97.50;101619.66;4921586;28;20042;-77
2023/08/12 01:09:30;;;;;;;4.40;1.90;;;15.80;99.90;;;14.83;97.51;101629.00;4934290;28;20099;-76
2023/08/12 01:12:16;;;;;;;8.85;1.90;;;15.70;99.90;;;14.81;97.04;101626.41;4916849;28;20502;-76
2023/08/12 01:15:01;;;;;;;5.80;1.83;;;15.70;99.90;;;14.78;97.27;101618.63;4923295;28;20122;-76
2023/08/12 01:17:29;;;;;;;6.05;2.17;;;15.70;99.90;;;14.73;97.36;101620.66;4920734;28;20047;-75
2023/08/12 01:19:56;;;;;;;6.78;1.90;;;15.70;99.90;;;14.71;97.76;101602.19;4902778;28;20035;-76
2023/08/12 01:22:25;;;;;;;5.45;2.25;;;15.60;99.90;;;14.64;98.28;101600.75;4903070;28;20066;-76
2023/08/12 01:24:52;;;;;;;6.32;2.08;;;15.60;99.90;;;14.63;98.32;101604.34;4927812;29;20043;-76
2023/08/12 01:27:18;;;;;;;7.78;2.45;;;15.60;99.90;;;14.63;98.58;101599.03;4915842;28;20485;-76
2023/08/12 01:29:49;;;;;;;6.53;1.95;;;15.60;99.90;;;14.63;97.91;101598.19;4911522;28;20047;-76
2023/08/12 01:32:38;;;;;;;6.72;2.10;;;15.60;99.90;;;14.63;97.48;101592.88;4889248;28;20075;-76
2023/08/12 01:35:30;;;;;;;6.82;2.42;;;15.60;99.90;;;14.69;97.04;101593.44;4915092;28;20074;-76
2023/08/12 01:37:59;;;;;;;8.98;1.80;;;15.60;99.90;;;14.68;97.32;101591.72;4895667;28;20047;-77
2023/08/12 01:40:30;;;;;;;8.80;2.20;;;15.60;99.90;;;14.74;96.67;101587.91;4918204;28;20769;-76
2023/08/12 01:42:56;;;;;;;3.10;2.00;;;15.70;99.90;;;14.75;96.02;101586.94;4937200;28;20187;-76
2023/08/12 01:45:23;;;;;;;7.28;1.90;;;15.60;99.90;;;14.74;96.00;101578.16;4927134;28;20034;-76
2023/08/12 01:47:50;;;;;;;5.30;2.00;;;15.70;99.90;;;14.72;96.35;101574.72;4935121;28;20039;-76
2023/08/12 01:50:16;;;;;;;5.85;1.83;;;15.70;99.90;;;14.73;96.01;101560.53;4914516;28;20079;-76
2023/08/12 01:52:42;;;;;;;7.35;1.60;;;15.70;99.90;;;14.75;95.39;101553.38;4914572;28;20083;-76
2023/08/12 01:55:10;;;;;;;10.63;2.13;;;15.70;99.90;;;14.84;94.88;101560.00;4930844;28;20617;-76
2023/08/12 01:57:36;;;;;;;8.75;1.90;;;15.80;99.90;;;14.87;94.51;101557.16;4906432;29;20067;-76
2023/08/12 02:00:03;;;;;;;12.82;2.22;;;15.80;99.90;;;14.88;94.03;101556.25;4918045;29;20118;-76
2023/08/12 02:02:28;;;;;;;6.40;2.00;;;15.80;99.90;;;14.88;93.25;101556.25;4935274;28;20038;-76
2023/08/12 02:04:54;;;;;;;5.10;1.92;;;15.90;99.90;;;14.96;92.97;101562.00;4940451;28;20031;-77
2023/08/12 02:07:20;;;;;;;8.57;2.30;;;15.90;99.90;;;15.04;92.01;101563.41;4926735;28;20123;-77
2023/08/12 02:09:46;;;;;;;4.13;1.85;;;16.00;99.90;;;15.09;91.46;101567.53;4919148;28;20043;-76
2023/08/12 02:12:11;;;;;;;4.07;1.52;;;16.00;99.90;;;15.12;91.00;101559.41;4924383;28;20066;-76
2023/08/12 02:14:37;;;;;;;5.78;1.83;;;16.10;99.90;;;15.17;90.76;101565.34;4885869;28;1128653;-77
2023/08/12 02:17:06;;;;;;;4.60;1.90;;;16.10;99.90;;;15.20;90.20;101561.66;4922541;28;20047;-76
2023/08/12 02:19:33;;;;;;;7.32;1.90;;;16.10;99.90;;;15.10;90.49;101556.00;4903281;28;20564;-76
2023/08/12 02:22:01;;;;;;;8.70;2.13;;;16.10;99.90;;;15.15;90.71;101548.63;4932267;28;20031;-77
2023/08/12 02:24:27;;;;;;;11.02;1.98;;;16.10;99.90;;;15.22;90.26;101537.72;4923647;28;20567;-77
2023/08/12 02:26:53;;;;;;;4.20;2.00;;;16.20;99.90;;;15.22;89.87;101540.34;4928940;28;20162;-77
2023/08/12 02:29:21;;;;;;;5.18;1.95;;;16.20;99.90;;;15.19;89.79;101544.03;4950654;28;20062;-76
2023/08/12 02:31:47;;;;;;;6.82;1.90;;;16.20;99.90;;;15.24;89.35;101536.69;4906326;28;20043;-76
2023/08/12 02:34:13;;;;;;;9.02;2.20;;;16.20;99.90;;;15.25;89.33;101529.56;4918447;29;20137;-76
2023/08/12 02:36:39;;;;;;;7.57;2.10;;;16.20;99.90;;;15.27;89.16;101533.00;4896758;28;20042;-76
2023/08/12 02:39:05;;;;;;;4.60;1.73;;;16.20;99.90;;;15.30;88.66;101531.06;4910518;29;20118;-76
2023/08/12 02:41:31;;;;;;;6.72;2.10;;;16.30;99.90;;;15.29;88.88;101534.66;4924348;28;20042;-76
2023/08/12 02:44:05;;;;;;;7.45;1.85;;;16.30;99.90;;;15.37;88.24;101528.91;4922019;28;20042;-76
2023/08/12 02:46:31;;;;;;;7.45;1.95;;;16.30;99.90;;;15.34;88.55;101531.75;4918997;28;20038;-77
2023/08/12 02:48:57;;;;;;;6.78;2.08;;;16.30;99.90;;;15.38;88.38;101533.31;4923803;29;20102;-77
2023/08/12 02:51:23;;;;;;;5.97;2.10;;;16.30;99.90;;;15.39;88.16;101529.69;4927281;28;20119;-76
2023/08/12 02:53:48;;;;;;;9.90;2.00;;;16.30;99.90;;;15.35;88.33;101530.81;4908592;28;20019;-76
2023/08/12 02:56:14;;;;;;;5.78;1.85;;;16.30;99.90;;;15.24;89.09;101528.72;4907991;28;20121;-76
2023/08/12 02:58:42;;;;;;;8.73;2.38;;;16.20;99.90;;;15.27;89.19;101522.38;4912975;28;20475;-76
2023/08/12 03:01:08;;;;;;;8.05;2.33;;;16.20;99.90;;;15.30;89.50;101519.59;4908756;28;20109;-76
2023/08/12 03:03:34;;;;;;;12.57;3.00;;;16.20;99.90;;;15.28;89.19;101522.31;4891430;28;20044;-76
2023/08/12 03:06:00;;;;;;;8.73;2.17;;;16.20;99.90;;;15.28;88.90;101519.66;4918366;28;20054;-77
2023/08/12 03:08:26;;;;;;;6.32;2.03;;;16.30;99.90;;;15.33;88.62;101514.97;4937859;28;20455;-77
2023/08/12 03:11:02;;;;;;;4.93;2.42;;;16.30;99.90;;;15.33;88.80;101520.28;4920901;29;20464;-77
2023/08/12 03:13:28;;;;;;;5.50;2.55;;;16.30;99.90;;;15.35;89.15;101510.41;4906231;28;20411;-76
2023/08/12 03:15:54;;;;;;;9.98;2.63;;;16.30;99.90;;;15.33;88.68;101507.03;4899287;29;20047;-76
2023/08/12 03:18:23;;;;;;;7.50;2.17;;;16.30;99.90;;;15.41;89.14;101508.41;4906483;28;20542;-77
2023/08/12 03:20:49;;;;;;;13.15;2.70;;;16.40;99.90;;;15.44;88.93;101514.38;4909135;28;20024;-77
2023/08/12 03:23:15;;;;;;;9.73;2.92;;;16.40;99.90;;;15.50;88.74;101510.53;4915006;28;20083;-76
2023/08/12 03:25:41;;;;;;;8.10;2.75;;;16.40;99.90;;;15.54;88.59;101499.66;4927310;28;20042;-76
2023/08/12 03:28:06;;;;;;;11.32;2.80;;;16.40;99.90;;;15.50;88.74;101503.44;4916772;28;20110;-76
2023/08/12 03:30:32;;;;;;;11.20;3.20;;;16.40;99.90;;;15.47;89.19;101500.09;4915134;29;20056;-77
2023/08/12 03:32:58;;;;;;;6.15;2.75;;;16.50;99.90;;;15.45;89.41;101496.69;4903083;28;20043;-77
2023/08/12 03:35:26;;;;;;;10.13;3.20;;;16.40;99.90;;;15.55;89.26;101489.91;4923405;28;20118;-76
2023/08/12 03:37:53;;;;;;;11.27;3.30;;;16.50;99.90;;;15.57;89.03;101491.53;4907806;28;20050;-77
2023/08/12 03:40:19;;;;;;;11.27;3.22;;;16.50;99.90;;;15.53;89.47;101492.66;4915944;28;20411;-77
2023/08/12 03:42:44;;;;;;;8.32;2.90;;;16.50;99.90;;;15.60;89.06;101490.50;4911262;28;20063;-77
2023/08/12 03:45:10;;;;;;;18.73;3.35;;;16.50;99.90;;;15.53;89.82;101479.38;4932998;28;20131;-77
2023/08/12 03:47:36;;;;;;;8.57;3.33;;;16.60;99.90;;;15.57;89.91;101472.09;4907058;28;20035;-76
2023/08/12 03:50:02;;;;;;;10.00;3.30;;;16.50;99.90;;;15.63;89.84;101485.03;4924157;28;20039;-76
2023/08/12 03:52:32;;;;;;;7.93;3.08;;;16.50;99.90;;;15.66;89.98;101484.00;4901377;28;20040;-76
2023/08/12 03:54:58;;;;;;;9.35;3.20;;;16.60;99.90;;;15.64;89.72;101481.44;4900028;29;20040;-76
2023/08/12 03:57:24;;;;;;;13.07;3.58;;;16.60;99.90;;;15.70;89.54;101488.19;4914323;28;20040;-77
2023/08/12 03:59:50;;;;;;;5.75;3.10;;;16.60;99.90;;;15.72;89.77;101489.00;4923858;28;20150;-77
2023/08/12 04:02:15;;;;;;;6.63;2.88;;;16.60;99.90;;;15.72;89.97;101481.03;4936759;28;20125;-76
2023/08/12 04:04:43;;;;;;;7.32;3.05;;;16.60;99.90;;;15.69;90.43;101468.75;4908603;28;20602;-76
2023/08/12 04:07:09;;;;;;;11.48;3.22;;;16.60;99.90;;;15.64;91.05;101465.50;4923831;28;20070;-76
2023/08/12 04:09:35;;;;;;;14.75;3.70;;;16.60;99.90;;;15.70;90.87;101467.84;4921584;29;20051;-77
2023/08/12 04:12:01;;;;;;;13.65;3.50;;;16.60;99.90;;;15.65;91.05;101461.06;4903166;28;20113;-77
2023/08/12 04:14:26;;;;;;;10.40;3.42;;;16.60;99.90;;;15.66;91.82;101463.63;4936827;28;20575;-76
2023/08/12 04:16:52;;;;;;;9.10;3.10;;;16.60;99.90;;;15.66;91.90;101460.97;4917624;28;20594;-77
2023/08/12 04:19:18;;;;;;;10.25;3.20;;;16.60;99.90;;;15.64;92.32;101460.22;4919594;29;20724;-77
2023/08/12 04:21:46;;;;;;;10.85;3.08;;;16.60;99.90;;;15.66;92.56;101465.41;4903691;28;20119;-76
2023/08/12 04:24:16;;;;;;;7.38;2.70;;;16.60;99.90;;;15.72;92.32;101458.00;4933808;28;20450;-77
2023/08/12 04:26:42;;;;;;;9.45;3.08;;;16.60;99.90;;;15.74;92.82;101461.44;4924003;28;20717;-76
2023/08/12 04:29:08;;;;;;;13.10;3.28;;;16.70;99.90;;;15.85;92.33;101457.28;4905770;28;20043;-76
2023/08/12 04:31:34;;;;;;;5.85;3.22;;;16.70;99.90;;;15.90;92.15;101453.44;4912201;29;20564;-76
2023/08/12 04:33:59;;;;;;;8.80;2.97;;;16.80;99.90;;;15.88;92.33;101442.06;4895843;28;20575;-77
2023/08/12 04:36:25;;;;;;;8.05;3.20;;;16.80;99.90;;;15.92;92.73;101437.44;4923270;28;20046;-76
2023/08/12 04:38:51;;;;;;;5.68;2.60;;;16.80;99.90;;;16.03;91.78;101434.16;4928742;28;20235;-77
2023/08/12 04:41:25;;;;;;;10.10;3.03;;;16.90;99.90;;;16.05;91.65;101435.78;4916249;28;20055;-76
2023/08/12 04:43:51;;;;;;;7.68;3.05;;;16.90;99.90;;;16.11;91.61;101431.88;4916406;28;20054;-75
2023/08/12 04:46:17;;;;;;;10.20;3.30;;;17.00;99.90;;;16.18;91.10;101434.09;4894966;28;20540;-76
2023/08/12 04:48:43;;;;;;;9.23;3.08;;;17.00;99.90;;;16.26;90.82;101440.75;4921953;28;20043;-75
2023/08/12 04:51:14;;;;;;;8.95;2.85;;;17.10;99.90;;;16.34;90.17;101441.16;4911636;28;20044;-76
2023/08/12 04:53:40;;;;;;;8.38;3.28;;;17.20;99.90;;;16.42;89.65;101432.75;4932173;28;20038;-75
2023/08/12 04:56:06;;;;;;;8.90;3.15;;;17.30;99.90;;;16.56;89.59;101435.41;4907392;28;20514;-76
2023/08/12 04:58:31;;;;;;;10.32;3.25;;;17.30;99.90;;;16.63;88.95;101435.88;4918394;28;20514;-76
2023/08/12 05:00:57;;;;;;;10.48;3.30;;;17.40;99.90;;;16.80;88.21;101446.38;4923152;29;20055;-75
2023/08/12 05:03:23;;;;;;;7.45;3.22;;;17.60;99.90;;;16.98;87.13;101447.06;4924047;28;20046;-76
2023/08/12 05:05:52;;;;;;;5.75;2.70;;;17.70;99.90;;;17.23;85.93;101443.72;4926736;28;20039;-76
2023/08/12 05:08:19;;;;;;;4.28;2.60;;;17.90;99.90;;;17.32;85.01;101428.97;4885755;28;20109;-76
2023/08/12 05:10:48;;;;;;;8.25;2.38;;;18.10;99.90;;;17.79;84.00;101438.34;4946111;28;20027;-76
2023/08/12 05:13:14;;;;;;;8.00;2.55;;;18.40;99.90;;;18.31;81.65;101437.56;4913646;28;20043;-76
2023/08/12 05:15:49;;;;;;;15.18;3.35;;;18.60;99.90;;;18.61;79.53;101439.94;4916540;28;20047;-76
2023/08/12 05:18:15;;;;;;;10.20;3.08;;;19.10;99.90;;;19.89;76.34;101452.22;4922293;28;20474;-76
2023/08/12 05:20:41;;;;;;;10.85;3.20;;;20.30;99.90;;;23.63;65.75;101475.25;4897550;29;20114;-76
2023/08/12 05:23:11;;;;;;;8.18;2.95;;;21.80;99.90;;;24.49;59.59;101462.03;4921724;28;20031;-76
2023/08/12 05:25:39;;;;;;;6.85;2.65;;;22.00;99.90;;;21.93;64.71;101446.06;4931324;28;20028;-76
2023/08/12 05:28:05;;;;;;;7.30;3.17;;;21.70;99.90;;;21.00;68.09;101441.09;4926022;28;20035;-76
2023/08/12 05:30:31;;;;;;;7.40;2.78;;;21.30;99.90;;;20.34;70.11;101440.84;4916142;29;20035;-76
2023/08/12 05:32:56;;;;;;;9.05;2.70;;;20.80;99.90;;;19.56;72.47;101429.66;4911363;28;20130;-76
2023/08/12 05:35:22;;;;;;;7.30;3.08;;;20.50;99.90;;;19.42;73.28;101432.50;4914063;29;20123;-75
2023/08/12 05:37:48;;;;;;;7.13;2.70;;;20.20;99.90;;;19.26;74.13;101427.41;4940072;28;20042;-76
2023/08/12 05:40:16;;;;;;;5.55;3.03;;;20.00;99.90;;;19.02;74.89;101425.53;4908797;28;20174;-76
2023/08/12 05:42:42;;;;;;;11.57;2.95;;;19.90;99.90;;;19.11;75.05;101425.84;4919530;28;20043;-76
2023/08/12 05:45:08;;;;;;;9.10;3.00;;;19.90;99.90;;;19.17;75.02;101426.25;4918559;28;20122;-76
2023/08/12 05:47:34;;;;;;;10.88;2.70;;;19.90;99.90;;;19.91;73.89;101436.06;4922496;28;20039;-75
2023/08/12 05:50:00;;;;;;;10.27;2.75;;;20.50;99.90;;;21.21;68.32;101444.75;4946225;28;20139;-75
2023/08/12 05:52:27;;;;;;;8.02;2.88;;;20.90;99.90;;;21.99;66.75;101458.94;4894978;28;20111;-76
2023/08/12 05:54:57;;;;;;;7.95;2.80;;;21.30;99.90;;;21.50;66.58;101445.06;4922028;28;20043;-75
2023/08/12 05:57:23;;;;;;;6.25;2.55;;;21.40;99.90;;;21.49;67.13;101445.22;4922007;28;20894;-76
2023/08/12 05:59:49;;;;;;;6.35;2.90;;;21.60;99.90;;;22.17;64.83;101461.06;4923988;28;20126;-76
2023/08/12 06:02:15;;;;;;;5.57;2.97;;;21.90;99.90;;;23.01;63.25;101470.00;4906246;28;20469;-75
2023/08/12 06:04:40;;;;;;;4.95;3.00;;;22.40;99.90;;;23.28;62.07;101473.91;4917062;28;20035;-76
2023/08/12 06:07:06;;;;;;;7.25;2.60;;;22.90;99.90;;;24.40;59.60;101487.94;4920404;28;20031;-75
2023/08/12 06:09:32;;;;;;;12.27;3.00;;;23.20;99.90;;;24.01;60.10;101473.66;4928447;28;20125;-76
2023/08/12 06:12:02;;;;;;;10.75;2.70;;;24.00;99.90;;;27.15;54.42;101516.66;4932509;28;20049;-76
2023/08/12 06:14:28;;;;;;;6.80;2.50;;;25.00;99.90;;;27.96;52.12;101518.00;4922124;28;20042;-76
2023/08/12 06:16:54;;;;;;;5.15;2.60;;;25.70;99.90;;;28.23;50.91;101525.81;4911838;29;20043;-75
2023/08/12 06:19:20;;;;;;;7.65;2.20;;;26.30;99.90;;;26.95;51.33;101510.59;4913534;28;20071;-76
2023/08/12 06:21:45;;;;;;;5.50;2.80;;;26.30;99.90;;;27.70;51.45;101518.06;4895705;28;20131;-76
2023/08/12 06:24:11;;;;;;;7.28;2.50;;;26.90;99.90;;;29.61;47.94;101543.88;4922215;28;20035;-77
2023/08/12 06:26:37;;;;;;;5.03;2.13;;;27.40;99.90;;;28.45;48.61;101539.69;4926365;28;20035;-77
2023/08/12 06:29:05;;;;;;;7.00;2.00;;;27.60;99.90;;;27.97;49.85;101530.50;4898650;29;20050;-78
2023/08/12 06:31:31;;;;;;;5.18;2.22;;;27.20;99.90;;;26.83;51.42;101520.00;4947013;28;20043;-77
2023/08/12 06:33:57;;;;;;;6.82;2.20;;;26.90;99.90;;;26.19;52.67;101512.03;4938118;28;20525;-77
2023/08/12 06:36:23;;;;;;;5.70;2.40;;;26.50;99.90;;;26.07;53.45;101506.03;4926160;28;20189;-77
2023/08/12 06:38:48;;;;;;;5.78;2.50;;;26.30;99.90;;;26.03;53.35;101501.09;4902988;29;20110;-77
2023/08/12 06:41:14;;;;;;;4.45;2.33;;;26.00;99.90;;;25.41;54.33;101490.94;4912798;28;20138;-77
2023/08/12 06:43:43;;;;;;;8.23;2.20;;;25.60;99.90;;;24.80;55.82;101473.44;4924751;28;20521;-78
2023/08/12 06:46:11;;;;;;;7.45;2.50;;;25.30;99.90;;;24.61;56.52;101466.25;4923065;28;20036;-77
2023/08/12 06:48:37;;;;;;;6.68;2.45;;;25.10;99.90;;;24.54;56.47;101471.38;4919332;28;20040;-77
2023/08/12 06:51:10;;;;;;;6.00;2.55;;;24.90;99.90;;;24.23;56.92;101467.97;4930630;28;20139;-77
2023/08/12 06:53:37;;;;;;;6.07;2.00;;;24.70;99.90;;;24.22;57.64;101463.59;4917082;28;20028;-79
2023/08/12 06:56:03;;;;;;;2.78;2.00;;;24.70;99.90;;;24.53;56.33;101463.44;4887514;28;20125;-78
2023/08/12 06:58:29;;;;;;;6.32;2.13;;;24.70;99.90;;;26.11;53.61;101485.84;4940049;28;20493;-78
2023/08/12 07:00:55;;;;;;;5.82;2.50;;;25.80;99.90;;;27.20;52.23;101504.31;4927015;29;20035;-78
2023/08/12 07:03:22;;;;;;;6.65;2.00;;;26.80;99.90;;;28.47;49.54;101507.00;4927051;28;20138;-77
2023/08/12 07:05:48;;;;;;;13.13;2.53;;;28.10;99.90;;;30.14;45.79;101533.25;4932509;28;20039;-77
2023/08/12 07:08:18;;;;;;;8.05;2.35;;;29.50;97.90;;;31.23;43.74;101542.81;4920974;28;20051;-77
2023/08/12 07:10:45;;;;;;;5.18;2.25;;;30.70;96.00;;;32.25;42.12;101557.47;4889977;28;20131;-79
2023/08/12 07:13:10;;;;;;;6.32;2.10;;;31.40;94.80;;;32.56;41.23;101565.31;4914772;28;20109;-77
2023/08/12 07:15:36;;;;;;;11.88;2.97;;;32.10;93.40;;;33.06;40.26;101565.25;4898454;29;20036;-77
2023/08/12 07:18:02;;;;;;;5.75;2.22;;;32.90;93.30;;;34.26;38.70;101583.06;4915763;28;20024;-78
2023/08/12 07:20:28;;;;;;;4.82;2.30;;;33.20;92.20;;;33.63;39.31;101583.28;4918254;28;23541;-78
2023/08/12 07:22:59;;;;;;;7.07;2.03;;;33.80;91.80;;;34.30;38.03;101595.25;4922066;28;20035;-77
2023/08/12 07:25:25;;;;;;;9.20;2.22;;;33.70;90.70;;;34.11;37.99;101582.38;4910716;28;20502;-78
2023/08/12 07:27:50;;;;;;;7.50;2.17;;;33.50;90.70;;;32.76;39.93;101578.25;4886376;28;20139;-77
2023/08/12 07:30:16;;;;;;;11.10;2.53;;;33.20;90.40;;;32.12;41.26;101562.75;4910100;29;20066;-78
2023/08/12 07:32:42;;;;;;;7.30;2.58;;;32.70;90.30;;;31.25;41.75;101554.34;4937270;28;20154;-76
2023/08/12 07:35:13;;;;;;;7.20;2.65;;;32.20;91.00;;;31.45;42.05;101554.66;4903081;28;20032;-75
2023/08/12 07:37:39;;;;;;;5.07;2.20;;;32.70;91.60;;;33.24;40.08;101573.81;4902821;28;20035;-80
2023/08/12 07:40:06;;;;;;;7.60;2.13;;;33.40;91.40;;;34.36;38.10;101579.91;4891939;28;20054;-78
2023/08/12 07:42:31;;;;;;;5.60;2.05;;;34.20;90.10;;;34.81;37.43;101596.56;4931715;28;20038;-77
2023/08/12 07:44:57;;;;;;;7.60;2.17;;;35.10;90.00;;;35.92;36.28;101600.31;4913712;28;20147;-77
2023/08/12 07:47:23;;;;;;;9.10;1.90;;;35.90;87.80;;;36.80;35.30;101599.50;4901324;28;20042;-78
2023/08/12 07:49:56;;;;;;;4.70;2.00;;;36.60;87.10;;;37.36;34.30;101609.53;4915013;28;20042;-79
2023/08/12 07:52:22;;;;;;;5.97;1.77;;;37.10;84.40;;;37.07;34.26;101604.75;4928775;28;20036;-78
2023/08/12 07:54:48;;;;;;;5.30;2.10;;;37.10;83.00;;;37.05;34.89;101609.63;4913167;28;20054;-78
2023/08/12 07:57:14;;;;;;;4.57;1.98;;;37.20;81.30;;;36.93;34.56;101601.28;4917264;28;20115;-77
2023/08/12 07:59:39;;;;;;;7.93;2.10;;;37.40;83.30;;;37.50;34.67;101612.13;4905462;28;20106;-78
2023/08/12 08:02:05;;;;;;;5.47;2.15;;;37.80;83.30;;;37.91;33.49;101614.16;4902827;28;20515;-77
2023/08/12 08:04:33;;;;;;;6.00;1.90;;;37.70;79.50;;;37.08;34.09;101610.00;4905682;28;20032;-77
2023/08/12 08:07:00;;;;;;;10.25;2.22;;;37.60;80.60;;;36.92;33.91;101594.97;4901397;28;20147;-78
2023/08/12 08:09:25;;;;;;;7.70;2.03;;;37.30;82.00;;;36.90;34.41;101588.88;4909111;28;20043;-77
2023/08/12 08:11:51;;;;;;;5.93;1.80;;;37.20;82.50;;;36.86;33.99;101573.91;4930800;28;20117;-79
2023/08/12 08:14:17;;;;;;;4.28;2.15;;;37.10;80.50;;;36.70;34.15;101577.25;4917156;28;20048;-77
2023/08/12 08:16:43;;;;;;;5.13;1.98;;;36.60;80.10;;;35.95;35.45;101564.25;4923961;28;20117;-77
2023/08/12 08:19:13;;;;;;;7.20;2.05;;;36.50;80.80;;;36.00;35.19;101567.16;4929861;28;20578;-78
2023/08/12 08:21:39;;;;;;;6.20;2.08;;;36.40;83.20;;;36.12;36.13;101554.47;4913862;28;20614;-78
2023/08/12 08:24:06;;;;;;;5.28;1.88;;;35.90;81.50;;;34.88;37.11;101542.72;4905123;28;20038;-78
2023/08/12 08:26:31;;;;;;;6.05;2.25;;;35.30;82.00;;;34.00;37.83;101523.72;4929408;28;20489;-78
2023/08/12 08:28:58;;;;;;;6.00;2.10;;;34.80;83.70;;;33.80;39.19;101506.44;4920921;28;20078;-78
2023/08/12 08:31:23;;;;;;;5.40;2.03;;;34.30;85.70;;;33.56;38.83;101500.44;4898989;29;20055;-78
2023/08/12 08:33:54;;;;;;;9.88;2.20;;;34.00;84.70;;;32.78;39.22;101486.19;4932753;29;20076;-78
2023/08/12 08:36:20;;;;;;;6.38;1.80;;;33.30;86.70;;;32.08;41.51;101458.81;4938719;28;20066;-79
2023/08/12 08:38:46;;;;;;;6.28;2.03;;;32.60;87.80;;;31.34;42.25;101446.25;4932861;28;20137;-78
2023/08/12 08:41:12;;;;;;;6.07;2.53;;;31.70;89.10;;;30.29;43.63;101425.53;4905960;29;20054;-78
2023/08/12 08:43:50;;;;;;;8.13;2.20;;;31.10;90.80;;;29.78;45.48;101414.38;4904915;28;20035;-78
2023/08/12 08:46:16;;;;;;;5.15;2.35;;;30.30;91.30;;;28.85;46.53;101397.06;4883121;29;20131;-78
2023/08/12 08:48:48;;;;;;;4.90;2.20;;;29.80;92.00;;;28.70;46.59;101390.69;4912832;28;20670;-78
2023/08/12 08:51:14;;;;;;;7.43;2.10;;;29.50;92.60;;;28.55;47.52;101382.44;4934464;28;20035;-78
2023/08/12 08:53:41;;;;;;;11.40;2.53;;;29.30;93.30;;;28.73;47.61;101385.78;4909436;28;20640;-77
2023/08/12 08:56:11;;;;;;;7.72;2.35;;;29.30;93.90;;;28.32;48.08;101382.31;4942945;28;20038;-77
2023/08/12 08:58:41;;;;;;;9.02;2.03;;;29.00;93.80;;;28.50;47.95;101374.81;4921555;28;20032;-77
2023/08/12 09:01:09;;;;;;;4.10;2.05;;;28.90;93.90;;;28.23;48.58;101373.34;4923472;29;20031;-77
2023/08/12 09:03:42;;;;;;;3.80;2.00;;;28.90;94.80;;;28.62;48.72;101375.31;4927261;28;20043;-77
2023/08/12 09:06:11;;;;;;;13.18;2.55;;;28.90;94.60;;;28.64;48.28;101367.88;4949077;23;20427;-78
2023/08/12 09:08:40;;;;;;;8.25;1.60;;;29.00;94.80;;;28.87;48.00;101369.78;4960749;28;20043;-78
2023/08/12 09:11:07;;;;;;;8.77;2.08;;;29.10;94.30;;;28.84;47.50;101371.00;4946305;28;20027;-78
2023/08/12 09:13:38;;;;;;;7.75;2.35;;;29.10;95.00;;;28.80;48.10;101365.06;4953970;28;20465;-77
2023/08/12 09:16:04;;;;;;;12.70;1.98;;;29.10;94.90;;;28.94;48.79;101359.91;4933151;28;20042;-78
2023/08/12 09:18:34;;;;;;;9.55;1.60;;;29.20;94.20;;;28.97;47.68;101365.84;4944812;28;20081;-78
2023/08/12 09:21:11;;;;;;;5.60;1.98;;;29.20;93.90;;;28.91;46.90;101368.41;4939944;28;20045;-78
2023/08/12 09:23:44;;;;;;;5.60;1.58;;;29.20;94.00;;;28.93;47.55;101358.25;4921098;28;20038;-78
2023/08/12 09:26:26;;;;;;;8.57;2.00;;;29.20;93.80;;;28.86;47.23;101358.13;4910555;28;20533;-78
2023/08/12 09:28:53;;;;;;;5.45;2.00;;;29.30;94.20;;;29.19;47.47;101356.09;4940812;28;20039;-78
2023/08/12 09:31:32;;;;;;;6.85;1.80;;;29.40;93.80;;;29.20;46.66;101355.09;4914520;28;20063;-78
2023/08/12 09:34:11;;;;;;;5.38;2.10;;;29.50;93.00;;;29.20;46.94;101352.38;4929888;28;20034;-78
2023/08/12 09:36:38;;;;;;;5.43;1.80;;;29.60;94.30;;;29.40;47.51;101347.31;4945345;28;20591;-76
2023/08/12 09:39:14;;;;;;;8.98;1.95;;;29.60;93.00;;;29.22;46.38;101339.47;4939651;28;20047;-78
2023/08/12 09:41:42;;;;;;;8.38;1.92;;;29.70;93.20;;;29.30;46.87;101343.16;4931669;28;20109;-77
2023/08/12 09:44:12;;;;;;;8.73;2.05;;;29.70;93.40;;;29.65;46.14;101352.53;4929801;28;20027;-77
2023/08/12 09:46:42;;;;;;;10.32;2.00;;;29.80;93.10;;;29.39;45.98;101336.63;4942834;28;20043;-77
2023/08/12 09:49:11;;;;;;;10.73;2.40;;;29.70;94.00;;;29.53;46.95;101327.72;4920378;28;20035;-77
2023/08/12 09:51:42;;;;;;;9.65;2.03;;;29.80;94.00;;;29.63;46.48;101325.63;4925696;28;20169;-77
2023/08/12 09:54:13;;;;;;;7.57;2.10;;;29.80;94.70;;;29.52;47.81;101330.63;4921870;28;20110;-78
2023/08/12 09:56:40;;;;;;;3.80;2.03;;;29.80;93.60;;;29.36;47.15;101316.16;4938058;28;20030;-77
2023/08/12 09:59:17;;;;;;;5.28;1.60;;;29.70;92.90;;;29.12;46.17;101309.03;4928013;28;20038;-77
2023/08/12 10:01:44;;;;;;;3.58;1.55;;;29.60;93.00;;;28.93;46.64;101309.47;4941144;28;20039;-78
2023/08/12 10:04:24;;;;;;;3.40;1.67;;;29.50;93.00;;;28.91;46.46;101300.66;4921450;28;20038;-77
2023/08/12 10:06:50;;;;;;;4.85;1.65;;;29.50;94.10;;;29.26;47.18;101301.16;4954121;28;20089;-78
2023/08/12 10:09:18;;;;;;;3.72;1.60;;;29.60;93.60;;;29.43;47.43;101308.13;4926329;28;20054;-78
2023/08/12 10:11:45;;;;;;;8.02;1.55;;;29.70;94.10;;;29.67;46.68;101298.09;4915318;28;20083;-77